Time;durP1;ratioP1;P1;durP2;ratioP2;P2;SDS_P1;SDS_P2;PMS_P1;PMS_P2;Temp;Humidity;BMP_temperature;BMP_pressure;BME280_temperature;BME280_humidity;BME280_pressure;Samples;Min_cycle;Max_cycle;Signal;HPM_P1;HPM_P2
2024/03/08 00:00:09;;;;;;;1.10;1.00;;;;;;;6.45;76.48;93434.13;520406;28;790;-71
2024/03/08 00:00:24;;;;;;;1.02;0.95;;;;;;;6.46;76.55;93438.34;520337;28;980;-70
2024/03/08 00:00:42;;;;;;;1.10;1.00;;;;;;;6.45;76.60;93434.13;520484;28;844;-70
2024/03/08 00:00:57;;;;;;;0.90;0.90;;;;;;;6.44;76.59;93432.63;520451;28;849;-70
2024/03/08 00:01:13;;;;;;;0.90;0.90;;;;;;;6.41;76.47;93436.41;520368;28;833;-70
2024/03/08 00:01:28;;;;;;;1.33;0.85;;;;;;;6.38;76.42;93439.47;520428;28;881;-71
2024/03/08 00:01:44;;;;;;;1.40;0.80;;;;;;;6.37;76.53;93438.72;520461;28;789;-71
2024/03/08 00:02:00;;;;;;;0.80;0.80;;;;;;;6.36;76.53;93431.75;520426;28;847;-71
2024/03/08 00:02:16;;;;;;;0.80;0.80;;;;;;;6.35;76.58;93432.28;520463;28;1057;-71
2024/03/08 00:02:31;;;;;;;0.73;0.73;;;;;;;6.36;76.62;93437.25;520471;28;789;-70
2024/03/08 00:02:47;;;;;;;0.70;0.70;;;;;;;6.37;76.60;93437.97;520383;28;817;-71
2024/03/08 00:03:03;;;;;;;0.70;0.70;;;;;;;6.35;76.50;93422.06;520453;28;921;-71
2024/03/08 00:03:18;;;;;;;0.70;0.70;;;;;;;6.36;76.42;93431.03;520443;28;917;-70
2024/03/08 00:03:34;;;;;;;0.70;0.70;;;;;;;6.35;76.39;93435.75;520450;28;861;-71
2024/03/08 00:03:51;;;;;;;0.80;0.80;;;;;;;6.36;76.14;93439.25;520368;28;929;-70
2024/03/08 00:04:06;;;;;;;0.80;0.80;;;;;;;6.34;76.19;93433.53;520349;28;881;-70
2024/03/08 00:04:22;;;;;;;0.80;0.80;;;;;;;6.35;76.24;93429.53;520413;28;844;-70
2024/03/08 00:04:37;;;;;;;0.80;0.80;;;;;;;6.34;76.35;93431.56;520435;28;857;-70
2024/03/08 00:04:53;;;;;;;0.70;0.70;;;;;;;6.32;76.40;93436.81;520433;28;884;-70
2024/03/08 00:05:09;;;;;;;0.70;0.70;;;;;;;6.25;76.56;93428.44;520493;28;893;-70
2024/03/08 00:05:24;;;;;;;0.70;0.70;;;;;;;6.21;76.72;93431.50;520260;28;809;-71
2024/03/08 00:05:40;;;;;;;0.77;0.70;;;;;;;6.20;76.60;93434.75;520408;28;858;-71
2024/03/08 00:05:56;;;;;;;0.70;0.60;;;;;;;6.18;76.93;93429.78;520374;28;826;-70
2024/03/08 00:06:11;;;;;;;0.60;0.60;;;;;;;6.17;77.07;93425.56;520283;28;968;-71
2024/03/08 00:06:27;;;;;;;0.60;0.60;;;;;;;6.18;77.16;93438.00;520335;28;868;-71
2024/03/08 00:06:45;;;;;;;0.57;0.57;;;;;;;6.19;76.96;93430.53;520306;28;774;-71
2024/03/08 00:07:01;;;;;;;0.50;0.50;;;;;;;6.12;77.58;93434.63;520343;28;905;-71
2024/03/08 00:07:16;;;;;;;0.57;0.57;;;;;;;6.10;77.81;93432.41;520259;28;786;-70
2024/03/08 00:07:32;;;;;;;0.60;0.60;;;;;;;6.11;77.83;93435.88;520345;28;778;-71
2024/03/08 00:07:47;;;;;;;0.60;0.60;;;;;;;6.10;77.83;93432.41;520286;28;826;-71
2024/03/08 00:08:05;;;;;;;0.70;0.70;;;;;;;6.10;77.84;93429.66;520335;28;869;-70
2024/03/08 00:08:20;;;;;;;0.80;0.80;;;;;;;6.11;77.95;93431.13;520237;28;826;-71
2024/03/08 00:08:35;;;;;;;0.70;0.70;;;;;;;6.13;77.98;93431.34;520351;28;813;-71
2024/03/08 00:08:51;;;;;;;0.70;0.70;;;;;;;6.15;77.90;93432.84;520362;28;832;-71
2024/03/08 00:09:07;;;;;;;1.10;0.70;;;;;;;6.11;77.88;93428.38;520340;28;856;-70
2024/03/08 00:09:23;;;;;;;1.25;0.60;;;;;;;6.17;77.92;93422.84;520216;28;900;-70
2024/03/08 00:09:38;;;;;;;0.60;0.60;;;;;;;6.20;77.57;93429.25;520246;28;953;-71
2024/03/08 00:09:54;;;;;;;0.63;0.60;;;;;;;6.20;77.83;93426.50;520241;28;852;-71
2024/03/08 00:10:11;;;;;;;0.80;0.70;;;;;;;6.22;77.67;93426.72;520368;28;814;-71
2024/03/08 00:10:28;;;;;;;0.70;0.70;;;;;;;6.20;77.63;93424.53;520172;28;849;-70
2024/03/08 00:10:44;;;;;;;0.57;0.57;;;;;;;6.20;77.57;93426.50;520335;28;861;-71
2024/03/08 00:10:59;;;;;;;0.60;0.60;;;;;;;6.19;77.53;93423.06;520274;28;818;-70
2024/03/08 00:11:15;;;;;;;0.70;0.70;;;;;;;6.22;77.41;93424.00;520333;28;786;-71
2024/03/08 00:11:31;;;;;;;0.73;0.73;;;;;;;6.22;77.42;93427.47;520303;28;834;-70
2024/03/08 00:11:46;;;;;;;0.73;0.73;;;;;;;6.22;77.35;93422.00;520262;28;924;-71
2024/03/08 00:12:02;;;;;;;0.73;0.70;;;;;;;6.23;77.37;93420.75;520414;28;762;-71
2024/03/08 00:12:17;;;;;;;1.10;0.82;;;;;;;6.24;77.40;93421.50;520324;28;806;-71
2024/03/08 00:12:33;;;;;;;1.07;0.80;;;;;;;6.24;77.33;93419.47;520252;28;840;-71
2024/03/08 00:12:49;;;;;;;0.60;0.60;;;;;;;6.25;77.27;93428.44;520260;28;881;-71
2024/03/08 00:13:04;;;;;;;0.60;0.60;;;;;;;6.23;77.18;93423.50;520277;28;849;-70
2024/03/08 00:13:20;;;;;;;0.60;0.60;;;;;;;6.24;76.82;93418.75;520282;28;840;-71
2024/03/08 00:13:36;;;;;;;0.60;0.60;;;;;;;6.22;77.17;93422.00;520331;28;781;-70
2024/03/08 00:13:53;;;;;;;0.60;0.60;;;;;;;6.24;77.15;93421.50;520177;28;1914;-71
2024/03/08 00:14:08;;;;;;;0.60;0.60;;;;;;;6.25;77.14;93422.97;520354;28;852;-71
2024/03/08 00:14:24;;;;;;;0.77;0.70;;;;;;;6.24;77.13;93419.47;520443;28;864;-71
2024/03/08 00:14:39;;;;;;;0.60;0.60;;;;;;;6.24;77.15;93422.22;520435;28;900;-71
2024/03/08 00:14:55;;;;;;;0.50;0.50;;;;;;;6.26;76.93;93416.22;520380;28;808;-70
2024/03/08 00:15:13;;;;;;;0.50;0.50;;;;;;;6.25;77.08;93422.97;520391;28;821;-71
2024/03/08 00:15:29;;;;;;;0.80;0.80;;;;;;;6.25;76.97;93417.47;520381;28;852;-71
2024/03/08 00:15:45;;;;;;;0.95;0.90;;;;;;;6.25;77.06;93420.22;520437;28;816;-71
2024/03/08 00:16:01;;;;;;;0.73;0.73;;;;;;;6.23;77.10;93418.00;520570;28;932;-71
2024/03/08 00:16:19;;;;;;;0.60;0.60;;;;;;;6.25;77.05;93420.22;520745;28;892;-70
2024/03/08 00:16:35;;;;;;;0.60;0.60;;;;;;;6.24;77.08;93416.72;520670;28;1056;-71
2024/03/08 00:16:52;;;;;;;2.70;0.80;;;;;;;6.24;76.98;93419.47;520780;28;852;-71
2024/03/08 00:17:09;;;;;;;2.17;0.70;;;;;;;6.24;76.91;93421.50;520738;28;837;-71
2024/03/08 00:17:25;;;;;;;0.75;0.75;;;;;;;6.24;77.14;93418.75;520743;28;916;-71
2024/03/08 00:17:41;;;;;;;0.90;0.80;;;;;;;6.25;77.04;93420.97;520792;28;868;-71
2024/03/08 00:17:56;;;;;;;1.08;0.82;;;;;;;6.25;77.13;93417.47;520719;28;821;-71
2024/03/08 00:18:12;;;;;;;0.93;0.80;;;;;;;6.25;76.95;93417.47;520666;27;904;-71
2024/03/08 00:18:28;;;;;;;0.70;0.70;;;;;;;6.25;76.93;93420.97;520673;28;887;-70
2024/03/08 00:18:44;;;;;;;0.80;0.80;;;;;;;6.25;76.77;93412.00;520655;28;935;-71
2024/03/08 00:18:59;;;;;;;0.70;0.70;;;;;;;6.15;76.46;93399.94;520696;27;865;-71
2024/03/08 00:19:15;;;;;;;0.60;0.60;;;;;;;6.25;76.77;93418.22;520663;28;805;-71
2024/03/08 00:19:30;;;;;;;0.68;0.68;;;;;;;6.26;76.83;93416.22;520702;28;832;-71
2024/03/08 00:19:46;;;;;;;0.80;0.80;;;;;;;6.25;76.97;93414.75;520702;28;852;-70
2024/03/08 00:20:03;;;;;;;0.73;0.73;;;;;;;6.23;76.58;93409.03;520742;28;793;-71
2024/03/08 00:20:18;;;;;;;0.68;0.68;;;;;;;6.25;76.59;93415.47;520559;28;873;-71
2024/03/08 00:20:34;;;;;;;0.90;0.77;;;;;;;6.26;76.73;93418.97;520541;28;864;-71
2024/03/08 00:20:50;;;;;;;0.82;0.70;;;;;;;6.24;76.60;93418.75;520684;28;753;-71
2024/03/08 00:21:08;;;;;;;0.70;0.70;;;;;;;6.23;76.79;93417.25;520544;28;861;-71
2024/03/08 00:21:24;;;;;;;0.70;0.70;;;;;;;6.23;77.00;93411.78;520598;28;829;-71
2024/03/08 00:21:39;;;;;;;0.70;0.70;;;;;;;6.21;76.99;93420.53;520792;28;824;-71
2024/03/08 00:21:55;;;;;;;0.90;0.73;;;;;;;6.17;77.02;93414.63;520608;28;868;-70
2024/03/08 00:22:11;;;;;;;0.65;0.60;;;;;;;6.13;77.01;93414.91;520552;28;868;-71
2024/03/08 00:22:26;;;;;;;0.70;0.60;;;;;;;6.13;77.46;93416.19;520616;28;869;-71
2024/03/08 00:22:43;;;;;;;1.10;0.77;;;;;;;6.13;77.37;93416.91;520754;27;922;-71
2024/03/08 00:22:59;;;;;;;1.30;0.82;;;;;;;6.13;77.25;93417.63;520611;28;865;-71
2024/03/08 00:23:15;;;;;;;1.37;0.90;;;;;;;6.14;77.29;93421.13;520692;28;827;-71
2024/03/08 00:23:33;;;;;;;0.88;0.88;;;;;;;6.16;77.33;93420.59;520531;28;845;-71
2024/03/08 00:23:48;;;;;;;0.90;0.90;;;;;;;6.16;77.12;93421.34;520587;28;1098;-71
2024/03/08 00:24:04;;;;;;;0.87;0.87;;;;;;;6.16;77.11;93420.59;520727;27;777;-70
2024/03/08 00:24:24;;;;;;;0.90;0.90;;;;;;;6.17;77.05;93411.88;520605;28;900;-71
2024/03/08 00:24:39;;;;;;;1.40;1.00;;;;;;;6.20;77.11;93415.56;520675;28;908;-71
2024/03/08 00:24:55;;;;;;;1.60;1.10;;;;;;;6.20;77.00;93418.28;520503;28;904;-71
2024/03/08 00:25:11;;;;;;;1.10;1.00;;;;;;;6.21;77.02;93414.31;520655;28;762;-71
2024/03/08 00:25:27;;;;;;;0.90;0.90;;;;;;;6.22;76.91;93415.78;520565;28;895;-70
2024/03/08 00:25:43;;;;;;;0.82;0.82;;;;;;;6.23;76.85;93418.00;520676;28;818;-71
2024/03/08 00:25:58;;;;;;;0.90;0.90;;;;;;;6.23;76.97;93411.78;520746;28;796;-71
2024/03/08 00:26:13;;;;;;;1.08;0.98;;;;;;;6.23;76.62;93422.75;520617;28;1018;-71
2024/03/08 00:26:29;;;;;;;1.00;0.90;;;;;;;6.21;76.98;93412.31;520627;28;825;-71
2024/03/08 00:26:45;;;;;;;0.98;0.88;;;;;;;6.22;76.67;93424.00;520631;28;853;-70
2024/03/08 00:27:02;;;;;;;1.08;0.90;;;;;;;6.21;76.91;93415.06;520698;28;793;-71
2024/03/08 00:27:20;;;;;;;1.42;0.93;;;;;;;6.21;76.81;93419.78;520655;28;902;-71
2024/03/08 00:27:36;;;;;;;1.75;0.95;;;;;;;6.21;76.70;93420.53;520603;28;892;-70
2024/03/08 00:27:55;;;;;;;1.08;0.98;;;;;;;6.22;76.87;93424.75;520689;27;864;-71
2024/03/08 00:28:14;;;;;;;1.20;1.10;;;;;;;6.22;76.93;93421.25;520635;28;840;-71
2024/03/08 00:28:30;;;;;;;1.70;1.10;;;;;;;6.21;77.04;93419.78;520535;28;849;-71
2024/03/08 00:28:46;;;;;;;1.60;1.08;;;;;;;6.20;76.95;93418.28;520649;28;940;-71
2024/03/08 00:29:03;;;;;;;0.90;0.90;;;;;;;6.19;77.18;93417.56;520625;28;821;-70
2024/03/08 00:29:18;;;;;;;0.85;0.85;;;;;;;6.19;76.86;93428.53;520522;28;948;-70
2024/03/08 00:29:34;;;;;;;0.80;0.80;;;;;;;6.18;76.96;93418.81;518490;28;1061;-70
2024/03/08 00:29:49;;;;;;;0.70;0.70;;;;;;;6.18;77.18;93420.81;518483;28;789;-71
2024/03/08 00:30:05;;;;;;;0.80;0.80;;;;;;;6.17;77.04;93419.34;518388;28;856;-71
2024/03/08 00:30:22;;;;;;;0.73;0.73;;;;;;;6.16;77.26;93417.84;518448;28;829;-70
2024/03/08 00:30:38;;;;;;;0.75;0.75;;;;;;;6.19;77.19;93414.09;518361;28;919;-70
2024/03/08 00:30:53;;;;;;;1.08;0.77;;;;;;;6.19;77.21;93411.34;518516;28;884;-70
2024/03/08 00:31:09;;;;;;;1.00;0.90;;;;;;;6.20;77.23;93416.28;518492;28;853;-71
2024/03/08 00:31:25;;;;;;;1.20;1.10;;;;;;;6.20;77.14;93423.78;519034;28;924;-70
2024/03/08 00:31:40;;;;;;;1.20;1.10;;;;;;;6.20;76.96;93419.03;520626;28;769;-71
2024/03/08 00:31:55;;;;;;;1.23;1.10;;;;;;;6.18;77.13;93420.81;520630;28;900;-70
2024/03/08 00:32:11;;;;;;;1.10;1.00;;;;;;;6.18;76.96;93415.34;520623;28;801;-70
2024/03/08 00:32:31;;;;;;;1.27;1.20;;;;;;;6.20;77.12;93418.28;520652;28;798;-71
2024/03/08 00:32:47;;;;;;;1.15;0.95;;;;;;;6.19;77.13;93414.84;520567;28;927;-71
2024/03/08 00:33:02;;;;;;;1.20;0.90;;;;;;;6.18;76.90;93416.06;520792;28;860;-72
2024/03/08 00:33:18;;;;;;;1.00;0.90;;;;;;;6.19;76.91;93414.84;520607;28;790;-70
2024/03/08 00:33:33;;;;;;;0.90;0.90;;;;;;;6.21;76.82;93419.78;520757;28;848;-71
2024/03/08 00:33:48;;;;;;;0.80;0.80;;;;;;;6.20;76.88;93419.03;520817;28;1981;-70
2024/03/08 00:34:04;;;;;;;0.80;0.80;;;;;;;6.20;76.88;93413.56;520714;28;718;-70
2024/03/08 00:34:19;;;;;;;1.55;0.80;;;;;;;6.18;76.51;93407.84;520809;28;876;-71
2024/03/08 00:34:36;;;;;;;1.70;0.80;;;;;;;6.21;76.44;93411.56;520721;28;1104;-70
2024/03/08 00:34:52;;;;;;;1.00;0.90;;;;;;;6.21;76.56;93419.78;518538;28;1131;-70
2024/03/08 00:35:07;;;;;;;1.00;0.95;;;;;;;6.18;76.51;93409.84;518553;28;853;-70
2024/03/08 00:35:23;;;;;;;1.00;1.00;;;;;;;6.18;76.60;93412.59;518584;28;958;-70
2024/03/08 00:35:39;;;;;;;0.93;0.93;;;;;;;6.17;76.52;93419.34;518545;28;758;-71
2024/03/08 00:35:54;;;;;;;1.05;0.95;;;;;;;6.16;76.56;93412.38;518481;28;789;-71
2024/03/08 00:36:10;;;;;;;1.03;0.93;;;;;;;6.15;76.36;93408.88;518634;28;975;-70
2024/03/08 00:36:26;;;;;;;0.97;0.90;;;;;;;6.15;76.60;93408.16;518588;28;854;-71
2024/03/08 00:36:41;;;;;;;1.15;0.98;;;;;;;6.15;76.63;93414.38;519006;28;919;-70
2024/03/08 00:36:58;;;;;;;1.40;1.13;;;;;;;6.16;76.57;93412.38;520661;28;876;-71
2024/03/08 00:37:13;;;;;;;1.30;1.20;;;;;;;6.16;76.63;93412.38;520579;28;880;-71
2024/03/08 00:37:29;;;;;;;1.03;1.03;;;;;;;6.16;76.56;93413.13;520603;28;803;-71
2024/03/08 00:37:47;;;;;;;1.20;1.00;;;;;;;6.17;76.53;93414.63;520641;28;805;-70
2024/03/08 00:38:03;;;;;;;1.27;1.05;;;;;;;6.20;76.61;93412.81;520659;28;849;-70
2024/03/08 00:38:18;;;;;;;1.50;0.98;;;;;;;6.18;76.92;93415.34;520766;28;773;-71
2024/03/08 00:38:34;;;;;;;1.40;0.90;;;;;;;6.18;76.81;93412.59;520600;28;900;-71
2024/03/08 00:38:49;;;;;;;1.25;1.15;;;;;;;6.19;76.60;93412.09;520711;28;852;-70
2024/03/08 00:39:06;;;;;;;1.37;1.10;;;;;;;6.20;76.73;93410.06;520630;28;860;-70
2024/03/08 00:39:21;;;;;;;0.93;0.88;;;;;;;6.21;76.80;93411.56;520602;28;872;-71
2024/03/08 00:39:37;;;;;;;0.80;0.70;;;;;;;6.22;76.81;93413.03;520640;28;1124;-70
2024/03/08 00:39:53;;;;;;;0.90;0.73;;;;;;;6.17;76.99;93408.38;520724;28;947;-70
2024/03/08 00:40:11;;;;;;;0.80;0.80;;;;;;;6.21;77.03;93411.56;520619;28;861;-70
2024/03/08 00:40:27;;;;;;;0.80;0.80;;;;;;;6.21;76.90;93414.31;520775;28;911;-70
2024/03/08 00:40:42;;;;;;;0.77;0.77;;;;;;;6.21;76.73;93417.03;520664;28;825;-70
2024/03/08 00:40:58;;;;;;;0.67;0.67;;;;;;;6.19;76.76;93412.09;520679;28;856;-70
2024/03/08 00:41:13;;;;;;;0.70;0.70;;;;;;;6.20;76.92;93410.06;520601;28;828;-71
2024/03/08 00:41:29;;;;;;;0.70;0.70;;;;;;;6.18;76.84;93409.84;520582;28;761;-71
2024/03/08 00:41:44;;;;;;;0.70;0.70;;;;;;;6.17;76.78;93420.09;520691;28;802;-71
2024/03/08 00:42:00;;;;;;;0.70;0.70;;;;;;;6.16;76.75;93413.13;520698;28;817;-71
2024/03/08 00:42:16;;;;;;;0.87;0.70;;;;;;;6.16;76.69;93412.38;520605;28;845;-71
2024/03/08 00:42:31;;;;;;;0.90;0.63;;;;;;;6.16;76.43;93415.13;520745;28;903;-70
2024/03/08 00:42:47;;;;;;;0.50;0.50;;;;;;;6.15;76.67;93416.41;520626;28;876;-70
2024/03/08 00:43:04;;;;;;;0.50;0.50;;;;;;;6.14;76.60;93415.66;520556;28;881;-71
2024/03/08 00:43:19;;;;;;;0.60;0.60;;;;;;;6.15;76.63;93417.13;520797;28;919;-70
2024/03/08 00:43:34;;;;;;;0.75;0.75;;;;;;;6.11;76.64;93411.19;520655;28;861;-72
2024/03/08 00:43:50;;;;;;;0.80;0.80;;;;;;;6.14;76.37;93418.38;520645;28;789;-70
2024/03/08 00:44:05;;;;;;;0.70;0.70;;;;;;;6.14;76.50;93421.13;520674;28;857;-71
2024/03/08 00:44:21;;;;;;;0.80;0.80;;;;;;;6.13;76.40;93411.41;520612;28;868;-70
2024/03/08 00:44:37;;;;;;;0.80;0.80;;;;;;;6.14;76.59;93418.38;518767;28;1091;-71
2024/03/08 00:44:53;;;;;;;0.68;0.68;;;;;;;6.13;76.19;93420.38;518417;28;943;-71
2024/03/08 00:45:10;;;;;;;0.60;0.60;;;;;;;6.15;76.09;93413.66;518691;28;798;-70
2024/03/08 00:45:25;;;;;;;0.60;0.60;;;;;;;6.15;76.02;93419.13;518680;28;814;-70
2024/03/08 00:45:44;;;;;;;0.60;0.55;;;;;;;6.15;75.85;93410.91;518586;28;818;-72
2024/03/08 00:46:01;;;;;;;0.80;0.60;;;;;;;6.12;75.81;93418.16;518683;28;869;-70
2024/03/08 00:46:17;;;;;;;0.70;0.60;;;;;;;6.11;75.80;93422.16;518578;28;912;-70
2024/03/08 00:46:33;;;;;;;0.70;0.60;;;;;;;6.11;75.79;93430.38;518654;28;833;-70
2024/03/08 00:46:49;;;;;;;1.02;0.93;;;;;;;6.08;75.83;93413.00;518760;28;1012;-70
2024/03/08 00:47:05;;;;;;;1.73;1.40;;;;;;;6.07;75.91;93414.25;518467;28;1616;-70
2024/03/08 00:47:20;;;;;;;2.10;1.83;;;;;;;6.07;76.19;93427.19;518669;28;818;-71
2024/03/08 00:47:36;;;;;;;2.10;1.90;;;;;;;6.07;75.93;93416.25;520500;28;1228;-70
2024/03/08 00:47:51;;;;;;;1.87;1.70;;;;;;;6.05;76.12;93419.50;520765;28;875;-70
2024/03/08 00:48:07;;;;;;;1.92;1.77;;;;;;;6.02;76.17;93412.31;520718;28;873;-70
2024/03/08 00:48:22;;;;;;;2.10;1.93;;;;;;;6.00;76.48;93416.84;520775;28;836;-70
2024/03/08 00:48:38;;;;;;;1.80;1.70;;;;;;;5.96;76.67;93425.34;520761;28;805;-71
2024/03/08 00:48:53;;;;;;;1.52;1.42;;;;;;;5.93;76.56;93420.19;520780;28;809;-70
2024/03/08 00:49:09;;;;;;;1.50;1.40;;;;;;;5.93;76.55;93422.94;520766;28;762;-70
2024/03/08 00:49:24;;;;;;;1.70;1.60;;;;;;;5.91;76.90;93419.97;520572;28;1253;-70
2024/03/08 00:49:41;;;;;;;1.70;1.60;;;;;;;5.90;77.02;93418.47;520735;28;786;-72
2024/03/08 00:49:57;;;;;;;1.92;1.70;;;;;;;5.89;76.83;93414.28;520517;28;940;-71
2024/03/08 00:50:12;;;;;;;2.67;2.13;;;;;;;5.90;77.08;93418.47;520610;28;797;-70
2024/03/08 00:50:28;;;;;;;2.80;2.30;;;;;;;5.90;76.99;93419.22;520664;28;778;-71
2024/03/08 00:50:45;;;;;;;2.88;2.53;;;;;;;5.92;76.84;93419.44;520532;28;865;-71
2024/03/08 00:51:02;;;;;;;2.90;2.60;;;;;;;5.94;77.12;93416.91;520710;28;1118;-70
2024/03/08 00:51:18;;;;;;;2.78;2.50;;;;;;;5.92;77.13;93416.69;520538;28;1087;-71
2024/03/08 00:51:33;;;;;;;2.50;2.30;;;;;;;5.91;77.23;93419.97;520597;28;892;-70
2024/03/08 00:51:49;;;;;;;1.88;1.77;;;;;;;5.89;77.15;93411.53;520568;28;872;-71
2024/03/08 00:52:07;;;;;;;1.60;1.50;;;;;;;5.87;77.35;93409.28;520559;28;797;-70
2024/03/08 00:52:26;;;;;;;1.65;1.55;;;;;;;5.87;77.41;93414.03;520530;28;837;-71
2024/03/08 00:52:42;;;;;;;1.70;1.60;;;;;;;5.85;77.56;93411.06;520595;28;935;-70
2024/03/08 00:52:57;;;;;;;1.60;1.50;;;;;;;5.83;77.47;93417.03;520747;28;869;-71
2024/03/08 00:53:12;;;;;;;1.63;1.52;;;;;;;5.81;77.69;93407.84;520671;28;880;-70
2024/03/08 00:53:28;;;;;;;1.67;1.57;;;;;;;5.81;77.64;93408.59;520766;28;778;-70
2024/03/08 00:53:43;;;;;;;1.60;1.50;;;;;;;5.82;77.82;93412.84;520684;28;1983;-70
2024/03/08 00:53:59;;;;;;;2.23;1.57;;;;;;;5.83;77.87;93408.81;520702;28;806;-70
2024/03/08 00:54:16;;;;;;;2.50;1.63;;;;;;;5.84;77.79;93413.09;520699;28;817;-70
2024/03/08 00:54:31;;;;;;;1.60;1.50;;;;;;;5.85;77.63;93406.34;520753;28;837;-71
2024/03/08 00:54:47;;;;;;;1.57;1.40;;;;;;;5.87;77.73;93414.03;520713;28;924;-71
2024/03/08 00:55:03;;;;;;;1.63;1.53;;;;;;;5.88;77.69;93407.28;520756;28;1080;-70
2024/03/08 00:55:18;;;;;;;1.77;1.67;;;;;;;5.89;77.87;93417.72;520664;28;770;-71
2024/03/08 00:55:34;;;;;;;1.70;1.60;;;;;;;5.89;77.90;93404.03;520707;28;789;-70
2024/03/08 00:55:50;;;;;;;1.40;1.30;;;;;;;5.90;77.97;93400.03;520727;28;848;-71
2024/03/08 00:56:05;;;;;;;1.00;1.00;;;;;;;5.91;78.07;93407.00;520772;28;852;-71
2024/03/08 00:56:21;;;;;;;1.30;1.20;;;;;;;5.92;77.87;93405.00;520713;28;813;-71
2024/03/08 00:56:39;;;;;;;1.20;1.10;;;;;;;5.93;77.82;93401.72;520636;28;852;-71
2024/03/08 00:56:55;;;;;;;1.05;0.98;;;;;;;5.94;77.57;93397.00;520573;28;939;-70
2024/03/08 00:57:11;;;;;;;1.00;1.00;;;;;;;5.94;77.46;93397.00;520623;28;1149;-71
2024/03/08 00:57:27;;;;;;;1.10;1.00;;;;;;;5.93;77.77;93407.22;520679;28;830;-71
2024/03/08 00:57:43;;;;;;;0.93;0.90;;;;;;;5.93;77.81;93401.72;520730;28;923;-71
2024/03/08 00:57:58;;;;;;;0.80;0.80;;;;;;;5.93;77.53;93401.72;520771;28;857;-71
2024/03/08 00:58:14;;;;;;;0.77;0.70;;;;;;;5.92;77.88;93403.00;520577;28;895;-70
2024/03/08 00:58:30;;;;;;;0.70;0.70;;;;;;;5.91;77.44;93400.78;520713;28;900;-71
2024/03/08 00:58:45;;;;;;;0.70;0.70;;;;;;;5.89;77.24;93400.56;520784;28;865;-71
2024/03/08 00:59:02;;;;;;;0.70;0.70;;;;;;;5.90;77.61;93404.78;520791;28;865;-70
2024/03/08 00:59:17;;;;;;;0.60;0.60;;;;;;;5.89;77.59;93400.56;520689;28;849;-71
2024/03/08 00:59:33;;;;;;;0.70;0.70;;;;;;;5.85;77.52;93395.38;520576;28;881;-70
2024/03/08 00:59:48;;;;;;;0.70;0.70;;;;;;;5.89;77.53;93403.31;520783;28;742;-70
2024/03/08 01:00:09;;;;;;;0.90;0.70;;;;;;;5.85;77.32;93392.63;520705;28;880;-71
2024/03/08 01:00:25;;;;;;;1.00;0.70;;;;;;;5.90;77.34;93396.56;520699;28;908;-70
2024/03/08 01:00:40;;;;;;;0.70;0.70;;;;;;;5.90;77.42;93400.03;520731;28;825;-70
2024/03/08 01:00:57;;;;;;;0.80;0.80;;;;;;;5.90;77.55;93399.28;520513;28;746;-70
2024/03/08 01:01:15;;;;;;;0.70;0.70;;;;;;;5.88;77.55;93397.09;520616;28;833;-70
2024/03/08 01:01:31;;;;;;;0.70;0.70;;;;;;;5.87;77.59;93398.34;520531;28;928;-71
2024/03/08 01:01:46;;;;;;;0.60;0.60;;;;;;;5.86;77.54;93391.38;520592;28;754;-70
2024/03/08 01:02:02;;;;;;;0.70;0.70;;;;;;;5.85;77.27;93395.38;520606;28;837;-70
2024/03/08 01:02:18;;;;;;;0.80;0.80;;;;;;;5.86;77.34;93399.59;520541;28;825;-70
2024/03/08 01:02:35;;;;;;;0.77;0.77;;;;;;;5.86;77.23;93391.38;520520;28;990;-70
2024/03/08 01:02:50;;;;;;;0.82;0.82;;;;;;;5.86;77.08;93394.13;520601;28;944;-71
2024/03/08 01:03:06;;;;;;;0.80;0.80;;;;;;;5.85;76.86;93397.38;520607;28;833;-70
2024/03/08 01:03:22;;;;;;;0.90;0.90;;;;;;;5.84;76.83;93395.91;520673;28;781;-70
2024/03/08 01:03:37;;;;;;;1.10;1.00;;;;;;;5.78;76.81;93397.94;520468;28;908;-71
2024/03/08 01:03:53;;;;;;;1.00;1.00;;;;;;;5.78;77.02;93389.72;520663;28;829;-70
2024/03/08 01:04:08;;;;;;;1.10;1.00;;;;;;;5.78;76.88;93400.69;520585;28;793;-70
2024/03/08 01:04:25;;;;;;;1.00;1.00;;;;;;;5.78;76.80;93395.94;520644;28;896;-70
2024/03/08 01:04:41;;;;;;;0.90;0.90;;;;;;;5.77;76.84;93389.00;520621;28;923;-70
2024/03/08 01:04:56;;;;;;;0.80;0.80;;;;;;;5.76;76.90;93392.25;520505;28;845;-70
2024/03/08 01:05:12;;;;;;;0.80;0.80;;;;;;;5.75;76.82;93396.25;520571;28;849;-70
2024/03/08 01:05:27;;;;;;;0.70;0.70;;;;;;;5.72;76.92;93389.78;520535;28;845;-70
2024/03/08 01:05:43;;;;;;;0.70;0.70;;;;;;;5.72;77.00;93398.00;520510;28;858;-70
2024/03/08 01:06:01;;;;;;;0.80;0.70;;;;;;;5.71;76.80;93396.53;520616;28;809;-70
2024/03/08 01:06:16;;;;;;;0.70;0.70;;;;;;;5.70;76.79;93399.78;520549;28;885;-70
2024/03/08 01:06:32;;;;;;;0.60;0.57;;;;;;;5.67;76.74;93389.88;520584;28;825;-71
2024/03/08 01:06:47;;;;;;;0.60;0.60;;;;;;;5.65;77.19;93384.19;520653;28;1053;-70
2024/03/08 01:07:02;;;;;;;0.70;0.70;;;;;;;5.63;77.19;93387.41;520597;28;840;-70
2024/03/08 01:07:18;;;;;;;0.60;0.60;;;;;;;5.53;77.25;93389.06;520534;28;785;-70
2024/03/08 01:07:35;;;;;;;0.70;0.70;;;;;;;5.49;77.52;93390.59;520563;28;840;-70
2024/03/08 01:07:51;;;;;;;0.90;0.80;;;;;;;5.31;77.56;93364.69;520495;28;896;-72
2024/03/08 01:08:07;;;;;;;0.75;0.70;;;;;;;5.45;77.37;93385.44;520515;28;842;-70
2024/03/08 01:08:23;;;;;;;0.80;0.80;;;;;;;5.46;77.65;93389.63;520636;28;861;-70
2024/03/08 01:08:40;;;;;;;0.90;0.90;;;;;;;5.47;77.38;93382.16;520650;28;849;-71
2024/03/08 01:08:56;;;;;;;0.80;0.80;;;;;;;5.44;77.70;93386.69;520587;28;865;-70
2024/03/08 01:09:11;;;;;;;0.70;0.70;;;;;;;5.41;77.64;93385.00;520629;28;841;-70
2024/03/08 01:09:27;;;;;;;0.80;0.80;;;;;;;5.13;77.64;93340.78;520573;28;845;-70
2024/03/08 01:09:43;;;;;;;1.20;0.90;;;;;;;5.38;77.68;93386.00;520539;28;964;-70
2024/03/08 01:09:58;;;;;;;1.50;1.10;;;;;;;5.38;77.53;93383.28;520588;28;977;-70
2024/03/08 01:10:14;;;;;;;1.13;1.00;;;;;;;5.38;77.68;93388.75;520613;28;778;-70
2024/03/08 01:10:29;;;;;;;1.00;0.90;;;;;;;5.34;77.67;93383.56;520519;28;817;-70
2024/03/08 01:10:45;;;;;;;1.08;0.98;;;;;;;5.33;77.85;93384.06;520580;28;774;-70
2024/03/08 01:11:00;;;;;;;1.33;1.23;;;;;;;5.29;77.91;93389.09;520517;28;800;-70
2024/03/08 01:11:17;;;;;;;1.63;1.52;;;;;;;5.27;78.06;93386.16;520592;28;868;-70
2024/03/08 01:11:34;;;;;;;1.58;1.48;;;;;;;5.24;77.82;93385.19;520613;28;849;-70
2024/03/08 01:11:50;;;;;;;1.60;1.40;;;;;;;5.26;78.22;93384.69;520746;28;869;-70
2024/03/08 01:12:07;;;;;;;1.63;1.38;;;;;;;5.25;78.22;93383.19;520675;28;837;-71
2024/03/08 01:12:22;;;;;;;1.40;1.30;;;;;;;5.22;78.38;93384.19;520739;28;920;-71
2024/03/08 01:12:39;;;;;;;1.25;1.15;;;;;;;5.17;78.53;93383.03;520658;28;825;-70
2024/03/08 01:12:56;;;;;;;1.45;1.25;;;;;;;5.17;78.25;93385.03;520645;28;841;-70
2024/03/08 01:13:12;;;;;;;2.25;1.50;;;;;;;5.16;78.71;93381.53;520696;28;881;-70
2024/03/08 01:13:27;;;;;;;1.77;1.37;;;;;;;5.17;78.88;93382.28;520637;28;794;-70
2024/03/08 01:13:42;;;;;;;1.40;1.30;;;;;;;5.16;78.77;93383.53;520695;28;1966;-71
2024/03/08 01:13:58;;;;;;;1.40;1.30;;;;;;;5.15;79.04;93380.09;520744;28;770;-70
2024/03/08 01:14:13;;;;;;;1.47;1.37;;;;;;;5.12;79.07;93374.88;520648;28;857;-70
2024/03/08 01:14:30;;;;;;;1.45;1.35;;;;;;;5.13;78.92;93387.31;520735;28;885;-70
2024/03/08 01:14:45;;;;;;;1.40;1.30;;;;;;;5.14;78.86;93377.84;520611;28;947;-71
2024/03/08 01:15:01;;;;;;;1.40;1.30;;;;;;;5.14;78.68;93377.84;520715;28;813;-70
2024/03/08 01:15:16;;;;;;;1.30;1.20;;;;;;;5.14;79.27;93386.78;520605;28;825;-70
2024/03/08 01:15:31;;;;;;;1.40;1.30;;;;;;;5.14;79.29;93380.56;520675;28;872;-71
2024/03/08 01:15:47;;;;;;;1.40;1.30;;;;;;;5.14;79.01;93388.78;520663;28;770;-70
2024/03/08 01:16:03;;;;;;;1.30;1.20;;;;;;;5.14;79.21;93375.09;520617;28;809;-70
2024/03/08 01:16:19;;;;;;;1.10;1.00;;;;;;;5.16;79.10;93389.00;520672;28;794;-70
2024/03/08 01:16:35;;;;;;;1.05;1.00;;;;;;;5.15;79.38;93385.56;520524;28;1139;-70
2024/03/08 01:16:51;;;;;;;1.15;1.05;;;;;;;5.13;79.17;93381.84;520671;28;977;-70
2024/03/08 01:17:06;;;;;;;0.93;0.90;;;;;;;4.97;79.14;93366.34;520681;28;1008;-70
2024/03/08 01:17:22;;;;;;;0.80;0.80;;;;;;;5.01;79.42;93378.47;520769;28;805;-71
2024/03/08 01:17:37;;;;;;;0.80;0.80;;;;;;;4.92;79.57;93362.41;520713;28;924;-70
2024/03/08 01:17:54;;;;;;;0.80;0.80;;;;;;;4.96;79.39;93382.00;520664;28;856;-70
2024/03/08 01:18:09;;;;;;;1.08;0.98;;;;;;;4.96;79.47;93379.28;520677;28;888;-70
2024/03/08 01:18:25;;;;;;;1.38;1.27;;;;;;;4.95;79.58;93382.53;520648;28;955;-70
2024/03/08 01:18:40;;;;;;;1.33;1.23;;;;;;;4.94;79.83;93381.03;520641;28;903;-70
2024/03/08 01:18:56;;;;;;;1.23;1.13;;;;;;;4.95;79.82;93382.53;520584;28;753;-70